Horta Airport Horta PT
ICAO: LPHR
IATA: HOR
Category: Medium
Scheduled Services: Yes

Elevation: 118 ft
TransAlt. 5000 ft.

Airport Communications:
APP:119.7
TWR:118

LPHR Zoom In..

If you have problems with the map follow the link
https://www.worldairports.se/pages/airport.php?
ICAO=LPHR

Runways:

(A) RW 10 length 5233 ft width 148 ft
---- / hdg 102

(B) RW 28 length 5233 ft width 148 ft
---- / hdg 282

Location; LPHR
Day. 21 / Time. 07.30 Zulu
* QNH: 1028
* Temperature: 19° c. 66.2°f.
* Wind from: 050° Speed 14 kn.
Dewpoint: 17° c.
Visibility: 10 km or more.
Clouds: Scattered 1200 ft.
Clouds: Scattered 3000 ft.

LPHR 210730Z 05014KT 010V070 9999 VCSH SCT012 SCT030 19/17 Q1028


Wind From 050°
Speed 14 kn.

 
 
jpsmedia.com for Web Design worldairports.se 2018   terms of use